Ascanius — V7FS9 — position and weather

sailwx.info

Track history (hours):
 
Tides and Currents Weather Stations Pressure Air Temp Water Temp Dewpoint Dewpoint Depression Visibility Wind Speed Wind Dir Waves Ship Positions

Ascanius

Last reported at 2017-Aug-06 02:19 UTC. Time now 2017-Aug-19 22:28 UTC.
Position S 32°32' E 152°43'.
Warning: this ship's position is 13 days out of date.

Length 225 m; draft 8.2 m.

Type: Cargo ship. MMSI: 538002012.

Date/timePositionNaut miles runAvg speedWind from/ knotsBaromVisibWave heightAir tempDewpointWater temp
2017-Aug-06 02:19S 32°32' E 152°43'310.8
2017-Aug-06 02:00S 32°34' E 152°41'510.6
2017-Aug-06 01:30S 32°38' E 152°37'510.9
2017-Aug-06 01:00S 32°42' E 152°32'611.2
2017-Aug-06 00:30S 32°46' E 152°28'511.0
2017-Aug-06 00:00S 32°50' E 152°23'611.0
2017-Aug-05 23:30S 32°52' E 152°17'511.0
2017-Aug-05 23:00S 32°55' E 152°11'510.9
2017-Aug-05 22:30S 32°57' E 152°05'510.7
2017-Aug-05 22:00S 32°60' E 151°60'510.0
2017-Aug-05 21:30S 33°02' E 151°54'2 3.7
2017-Aug-05 20:58S 33°03' E 151°52'1 2.9
2017-Aug-05 20:30S 33°04' E 151°54'4 7.6
2017-Aug-05 20:00S 33°06' E 151°57'2 3.8
2017-Aug-05 19:30S 33°07' E 151°59'1 1.0
2017-Aug-05 18:58S 33°06' E 151°60'1 0.9
2017-Aug-05 18:18S 33°06' E 151°60'0 1.0
2017-Aug-05 18:00S 33°06' E 151°60'1 1.0
2017-Aug-05 17:31S 33°05' E 152°00'1 1.0
2017-Aug-05 16:58S 33°05' E 152°01'0 1.0
2017-Aug-05 16:30S 33°04' E 152°01'1 1.0
2017-Aug-05 15:58S 33°04' E 152°01'0 0.9
2017-Aug-05 15:27S 33°03' E 152°01'0 0.7
2017-Aug-05 15:00S 33°03' E 152°01'1 1.2
2017-Aug-05 14:30S 33°03' E 152°02'3 5.1
2017-Aug-05 14:00S 33°06' E 152°00'3 6.0
2017-Aug-05 13:30S 33°08' E 151°59'2 3.0
2017-Aug-05 13:01S 33°07' E 151°60'2 4.9
2017-Aug-05 12:30S 33°05' E 151°59'2 5.0
2017-Aug-05 12:01S 33°02' E 151°58'3 5.1
2017-Aug-05 11:31S 32°60' E 151°57'3 5.6
2017-Aug-05 11:01S 32°57' E 151°56'4 8.4
2017-Aug-05 10:30S 32°56' E 151°51'3 6.7
2017-Aug-05 10:00S 32°55' E 151°48'1 1.5
2017-Aug-05 09:24S 32°55' E 151°47'0 1.1
2017-Aug-05 09:00S 32°55' E 151°46'0 0.0
2017-Aug-05 08:30S 32°55' E 151°46'0 0.0
2017-Aug-05 08:00S 32°55' E 151°46'0 0.0
2017-Aug-05 07:30S 32°55' E 151°46'0 0.0
2017-Aug-05 07:00S 32°55' E 151°46'0 0.0
2017-Aug-05 06:30S 32°55' E 151°46'0 0.0
2017-Aug-05 05:51S 32°55' E 151°46'0 0.0
2017-Aug-05 05:30S 32°55' E 151°46'0 0.0
2017-Aug-05 04:57S 32°55' E 151°46'0 0.0
2017-Aug-05 04:30S 32°55' E 151°46'0 0.0
2017-Aug-05 04:00S 32°55' E 151°46'0 0.0
2017-Aug-05 03:30S 32°55' E 151°46'0 0.0
2017-Aug-05 03:00S 32°55' E 151°46'0 0.0
2017-Aug-05 02:24S 32°55' E 151°46'0 0.0
2017-Aug-05 02:00S 32°55' E 151°46'0 0.0
2017-Aug-05 01:27S 32°55' E 151°46'0 0.0
2017-Aug-05 01:00S 32°55' E 151°46'0 0.0
2017-Aug-05 00:27S 32°55' E 151°46'0 0.0
2017-Aug-05 00:00S 32°55' E 151°46'0 0.0
2017-Aug-04 23:27S 32°55' E 151°46'0 0.0
2017-Aug-04 23:00S 32°55' E 151°46'0 0.0
2017-Aug-04 22:27S 32°55' E 151°46'0 0.0
2017-Aug-04 21:57S 32°55' E 151°46'0 0.0
2017-Aug-04 21:30S 32°55' E 151°46'0 0.0
2017-Aug-04 21:00S 32°55' E 151°46'0 0.0
2017-Aug-04 20:30S 32°55' E 151°46'0 0.0
2017-Aug-04 20:00S 32°55' E 151°46'0 0.0
2017-Aug-04 19:30S 32°55' E 151°46'0 0.0
2017-Aug-04 19:00S 32°55' E 151°46'0 0.0
2017-Aug-04 18:30S 32°55' E 151°46'0 0.0
2017-Aug-04 18:00S 32°55' E 151°46'0 0.0
2017-Aug-04 17:30S 32°55' E 151°46'0 0.0
2017-Aug-04 17:00S 32°55' E 151°46'0 0.0
2017-Aug-04 16:27S 32°55' E 151°46'0 0.0
2017-Aug-04 16:00S 32°55' E 151°46'0 0.0
2017-Aug-04 15:30S 32°55' E 151°46'0 0.0
2017-Aug-04 14:51S 32°55' E 151°46'0 0.0
2017-Aug-04 14:00S 32°55' E 151°46'0 0.0
2017-Aug-04 13:30S 32°55' E 151°46'0 0.0
2017-Aug-04 13:00S 32°55' E 151°46'0 0.0
2017-Aug-04 12:27S 32°55' E 151°46'0 0.0
2017-Aug-04 11:57S 32°55' E 151°46'0 0.0
2017-Aug-04 11:30S 32°55' E 151°46'0 0.0
2017-Aug-04 11:00S 32°55' E 151°46'0 0.0
2017-Aug-04 10:30S 32°55' E 151°46'0 0.0
2017-Aug-04 10:00S 32°55' E 151°46'0 0.0
2017-Aug-04 09:30S 32°55' E 151°46'0 0.0
2017-Aug-04 09:00S 32°55' E 151°46'0 0.0
2017-Aug-04 08:27S 32°55' E 151°46'0 0.0
2017-Aug-04 07:57S 32°55' E 151°46'0 0.0
2017-Aug-04 07:30S 32°55' E 151°46'0 0.0
2017-Aug-04 06:57S 32°55' E 151°46'0 0.0
2017-Aug-04 06:30S 32°55' E 151°46'0 0.0
2017-Aug-04 05:57S 32°55' E 151°46'0 0.0
2017-Aug-04 05:21S 32°55' E 151°46'0 0.0
2017-Aug-04 04:57S 32°55' E 151°46'0 0.0
2017-Aug-04 04:27S 32°55' E 151°46'0 0.0
2017-Aug-04 03:51S 32°55' E 151°46'0 0.0
2017-Aug-04 03:30S 32°55' E 151°46'0 0.0
2017-Aug-04 03:00S 32°55' E 151°46'0 0.0
2017-Aug-04 02:27S 32°55' E 151°46'0 0.0
2017-Aug-04 02:00S 32°55' E 151°46'0 0.0
2017-Aug-04 01:27S 32°55' E 151°46'0 0.0
2017-Aug-04 01:00S 32°55' E 151°46'0 0.0
2017-Aug-04 00:27S 32°55' E 151°46'0 0.0
2017-Aug-03 23:57S 32°55' E 151°46'0 0.0
2017-Aug-03 23:30S 32°55' E 151°46'0 0.0
2017-Aug-03 23:00S 32°55' E 151°46'0 0.0
2017-Aug-03 22:30S 32°55' E 151°46'0 0.0
2017-Aug-03 22:00S 32°55' E 151°46'0 0.0
2017-Aug-03 21:30S 32°55' E 151°46'0 0.0
2017-Aug-03 20:57S 32°55' E 151°46'0 0.0
2017-Aug-03 20:30S 32°55' E 151°46'0 0.0
2017-Aug-03 20:00S 32°55' E 151°46'0 0.0
2017-Aug-03 19:30S 32°55' E 151°46'0 0.0
2017-Aug-03 19:00S 32°55' E 151°46'0 0.0
2017-Aug-03 18:30S 32°55' E 151°46'0 0.0
2017-Aug-03 18:00S 32°55' E 151°46'0 0.0
2017-Aug-03 17:30S 32°55' E 151°46'0 0.0
2017-Aug-03 17:00S 32°55' E 151°46'0 0.0
2017-Aug-03 16:30S 32°55' E 151°46'0 0.0
2017-Aug-03 16:00S 32°55' E 151°46'0 0.0
2017-Aug-03 15:30S 32°55' E 151°46'0 0.0
2017-Aug-03 15:00S 32°55' E 151°46'0 0.0
2017-Aug-03 14:00S 32°55' E 151°46'0 0.0
2017-Aug-03 13:30S 32°55' E 151°46'0 0.0
2017-Aug-03 13:00S 32°55' E 151°46'0 0.0
2017-Aug-03 12:30S 32°55' E 151°46'0 0.0
2017-Aug-03 12:00S 32°55' E 151°46'0 0.0
2017-Aug-03 11:30S 32°55' E 151°46'0 0.0
2017-Aug-03 11:00S 32°55' E 151°46'0 0.0
2017-Aug-03 10:30S 32°55' E 151°46'0 0.0
2017-Aug-03 10:00S 32°55' E 151°46'0 0.0
2017-Aug-03 09:27S 32°55' E 151°46'0 0.0
2017-Aug-03 08:57S 32°55' E 151°46'0 0.0
2017-Aug-03 08:27S 32°55' E 151°46'0 0.0
2017-Aug-03 08:00S 32°55' E 151°46'0 0.0
2017-Aug-03 07:27S 32°55' E 151°46'0 0.0
2017-Aug-03 06:54S 32°55' E 151°46'0 0.0
2017-Aug-03 06:30S 32°55' E 151°46'0 0.0
2017-Aug-03 05:57S 32°55' E 151°46'0 0.0
2017-Aug-03 05:30S 32°55' E 151°46'0 0.0
2017-Aug-03 04:57S 32°55' E 151°46'0 0.0
2017-Aug-03 04:30S 32°55' E 151°46'0 0.0
2017-Aug-03 04:00S 32°55' E 151°46'0 0.0
2017-Aug-03 03:30S 32°55' E 151°46'0 0.0
2017-Aug-03 03:00S 32°55' E 151°46'0 0.0
2017-Aug-03 02:30S 32°55' E 151°46'0 0.0
2017-Aug-03 02:00S 32°55' E 151°46'0 0.0
2017-Aug-03 01:30S 32°55' E 151°46'0 0.0
2017-Aug-03 01:00S 32°55' E 151°46'0 0.0
2017-Aug-03 00:30S 32°55' E 151°46'0 0.0
2017-Aug-03 00:00S 32°55' E 151°46'0 0.0
2017-Aug-02 23:30S 32°55' E 151°46'0 0.0
2017-Aug-02 23:00S 32°55' E 151°46'0 0.0
2017-Aug-02 22:30S 32°55' E 151°46'0 0.0
2017-Aug-02 21:57S 32°55' E 151°46'0 0.0
2017-Aug-02 21:30S 32°55' E 151°46'0 0.0
2017-Aug-02 20:57S 32°55' E 151°46'0 0.0
2017-Aug-02 20:18S 32°55' E 151°46'0 0.0
2017-Aug-02 20:00S 32°55' E 151°46'0 0.0
2017-Aug-02 19:30S 32°55' E 151°46'0 0.0
2017-Aug-02 19:00S 32°55' E 151°46'0 0.0
2017-Aug-02 18:30S 32°55' E 151°46'0 0.0
2017-Aug-02 17:51S 32°55' E 151°46'0 0.0
2017-Aug-02 16:51S 32°55' E 151°46'0 0.0
2017-Aug-02 16:27S 32°55' E 151°46'0 0.0
2017-Aug-02 16:00S 32°55' E 151°46'0 0.0
2017-Aug-02 15:30S 32°55' E 151°46'0 0.0
2017-Aug-02 14:57S 32°55' E 151°46'0 0.0
2017-Aug-02 13:27S 32°55' E 151°46'0 0.0
2017-Aug-02 12:57S 32°55' E 151°46'0 0.0
2017-Aug-02 12:30S 32°55' E 151°46'0 0.0
2017-Aug-02 11:57S 32°55' E 151°46'0 0.0
2017-Aug-02 11:27S 32°55' E 151°46'0 0.0
2017-Aug-02 10:57S 32°55' E 151°46'0 0.0
2017-Aug-02 10:27S 32°55' E 151°46'0 0.0
2017-Aug-02 09:57S 32°55' E 151°46'0 0.0
2017-Aug-02 09:27S 32°55' E 151°46'0 0.0
2017-Aug-02 09:00S 32°55' E 151°46'0 0.0
2017-Aug-02 08:21S 32°55' E 151°46'0 0.0
2017-Aug-02 08:00S 32°55' E 151°46'0 0.0
2017-Aug-02 05:54S 32°55' E 151°46'0 0.0
2017-Aug-02 05:21S 32°55' E 151°46'0 0.0
2017-Aug-02 04:51S 32°55' E 151°46'0 0.0
2017-Aug-02 04:24S 32°55' E 151°46'0 0.0
2017-Aug-02 04:00S 32°55' E 151°46'0 0.0
2017-Aug-02 02:27S 32°55' E 151°46'0 0.0
2017-Aug-02 02:00S 32°55' E 151°46'  
2017-Jul-29 19:00S 32°59' E 152°05'0 0.8
2017-Jul-29 18:31S 32°59' E 152°04'0 0.8
2017-Jul-29 18:00S 32°59' E 152°04'0 0.7
2017-Jul-29 17:30S 32°59' E 152°03'0 0.9
2017-Jul-29 17:00S 32°59' E 152°03'0 0.6
2017-Jul-29 16:30S 32°59' E 152°03'0 0.8
2017-Jul-29 16:00S 32°59' E 152°02'0 0.7
2017-Jul-29 15:30S 32°59' E 152°02'0 0.6
2017-Jul-29 15:00S 32°59' E 152°01'0 0.4
2017-Jul-29 14:01S 32°59' E 152°01'0 0.5
2017-Jul-29 13:30S 32°59' E 152°01'0 0.4
2017-Jul-29 13:00S 32°60' E 152°00'0 0.4
2017-Jul-29 12:30S 32°60' E 152°00'0 0.3
2017-Jul-29 12:00S 32°60' E 152°00'0 0.2
2017-Jul-29 11:30S 32°60' E 152°00'0 0.0
2017-Jul-29 11:00S 32°60' E 152°00'0 0.1
2017-Jul-29 10:30S 32°60' E 152°00'0 0.2
2017-Jul-29 10:00S 33°00' E 151°60'0 0.4
2017-Jul-29 09:30S 33°00' E 151°60'0 0.3
2017-Jul-29 09:00S 33°00' E 151°60'0 0.4
2017-Jul-29 08:30S 33°00' E 151°60'0 0.7
2017-Jul-29 08:00S 33°01' E 151°59'0 0.8
2017-Jul-29 07:30S 33°01' E 151°59'0 0.8
2017-Jul-29 07:00S 33°01' E 151°59'0 0.7
2017-Jul-29 06:30S 33°02' E 151°59'0 0.8
2017-Jul-29 06:00S 33°02' E 151°58'0 0.7
2017-Jul-29 05:30S 33°02' E 151°58'1 1.1
2017-Jul-29 05:00S 33°03' E 151°58'1 1.2
2017-Jul-29 04:30S 33°03' E 151°57'1 1.5
2017-Jul-29 04:00S 33°04' E 151°57'3 5.5
2017-Jul-29 03:31S 33°03' E 151°53'4 8.8
2017-Jul-29 03:00S 33°08' E 151°53'611.4
2017-Jul-29 02:27S 33°14' E 151°52'33710.7
2017-Jul-27 19:03S 38°22' E 149°04'611.6
2017-Jul-27 18:33S 38°25' E 148°57'115.4
2017-Jul-27 18:29S 38°25' E 148°56'  
Track history (hours):
 
Tides and Currents Weather Stations Pressure Air Temp Water Temp Dewpoint Dewpoint Depression Visibility Wind Speed Wind Dir Waves Ship Positions

Ascanius

Last reported at 2017-Aug-06 02:19 UTC. Time now 2017-Aug-19 22:28 UTC.
Position S 32°32' E 152°43'.
Warning: this ship's position is 13 days out of date.

Length 225 m; draft 8.2 m.

Type: Cargo ship. MMSI: 538002012.

Date/timePositionNaut miles runAvg speedWind from/ knotsBaromVisibWave heightAir tempDewpointWater temp
2017-Aug-06 02:19S 32°32' E 152°43'310.8
2017-Aug-06 02:00S 32°34' E 152°41'510.6
2017-Aug-06 01:30S 32°38' E 152°37'510.9
2017-Aug-06 01:00S 32°42' E 152°32'611.2
2017-Aug-06 00:30S 32°46' E 152°28'511.0
2017-Aug-06 00:00S 32°50' E 152°23'611.0
2017-Aug-05 23:30S 32°52' E 152°17'511.0
2017-Aug-05 23:00S 32°55' E 152°11'510.9
2017-Aug-05 22:30S 32°57' E 152°05'510.7
2017-Aug-05 22:00S 32°60' E 151°60'510.0
2017-Aug-05 21:30S 33°02' E 151°54'2 3.7
2017-Aug-05 20:58S 33°03' E 151°52'1 2.9
2017-Aug-05 20:30S 33°04' E 151°54'4 7.6
2017-Aug-05 20:00S 33°06' E 151°57'2 3.8
2017-Aug-05 19:30S 33°07' E 151°59'1 1.0
2017-Aug-05 18:58S 33°06' E 151°60'1 0.9
2017-Aug-05 18:18S 33°06' E 151°60'0 1.0
2017-Aug-05 18:00S 33°06' E 151°60'1 1.0
2017-Aug-05 17:31S 33°05' E 152°00'1 1.0
2017-Aug-05 16:58S 33°05' E 152°01'0 1.0
2017-Aug-05 16:30S 33°04' E 152°01'1 1.0
2017-Aug-05 15:58S 33°04' E 152°01'0 0.9
2017-Aug-05 15:27S 33°03' E 152°01'0 0.7
2017-Aug-05 15:00S 33°03' E 152°01'1 1.2
2017-Aug-05 14:30S 33°03' E 152°02'3 5.1
2017-Aug-05 14:00S 33°06' E 152°00'3 6.0
2017-Aug-05 13:30S 33°08' E 151°59'2 3.0
2017-Aug-05 13:01S 33°07' E 151°60'2 4.9
2017-Aug-05 12:30S 33°05' E 151°59'2 5.0
2017-Aug-05 12:01S 33°02' E 151°58'3 5.1
2017-Aug-05 11:31S 32°60' E 151°57'3 5.6
2017-Aug-05 11:01S 32°57' E 151°56'4 8.4
2017-Aug-05 10:30S 32°56' E 151°51'3 6.7
2017-Aug-05 10:00S 32°55' E 151°48'1 1.5
2017-Aug-05 09:24S 32°55' E 151°47'0 1.1
2017-Aug-05 09:00S 32°55' E 151°46'0 0.0
2017-Aug-05 08:30S 32°55' E 151°46'0 0.0
2017-Aug-05 08:00S 32°55' E 151°46'0 0.0
2017-Aug-05 07:30S 32°55' E 151°46'0 0.0
2017-Aug-05 07:00S 32°55' E 151°46'0 0.0
2017-Aug-05 06:30S 32°55' E 151°46'0 0.0
2017-Aug-05 05:51S 32°55' E 151°46'0 0.0
2017-Aug-05 05:30S 32°55' E 151°46'0 0.0
2017-Aug-05 04:57S 32°55' E 151°46'0 0.0
2017-Aug-05 04:30S 32°55' E 151°46'0 0.0
2017-Aug-05 04:00S 32°55' E 151°46'0 0.0
2017-Aug-05 03:30S 32°55' E 151°46'0 0.0
2017-Aug-05 03:00S 32°55' E 151°46'0 0.0
2017-Aug-05 02:24S 32°55' E 151°46'0 0.0
2017-Aug-05 02:00S 32°55' E 151°46'0 0.0
2017-Aug-05 01:27S 32°55' E 151°46'0 0.0
2017-Aug-05 01:00S 32°55' E 151°46'0 0.0
2017-Aug-05 00:27S 32°55' E 151°46'0 0.0
2017-Aug-05 00:00S 32°55' E 151°46'0 0.0
2017-Aug-04 23:27S 32°55' E 151°46'0 0.0
2017-Aug-04 23:00S 32°55' E 151°46'0 0.0
2017-Aug-04 22:27S 32°55' E 151°46'0 0.0
2017-Aug-04 21:57S 32°55' E 151°46'0 0.0
2017-Aug-04 21:30S 32°55' E 151°46'0 0.0
2017-Aug-04 21:00S 32°55' E 151°46'0 0.0
2017-Aug-04 20:30S 32°55' E 151°46'0 0.0
2017-Aug-04 20:00S 32°55' E 151°46'0 0.0
2017-Aug-04 19:30S 32°55' E 151°46'0 0.0
2017-Aug-04 19:00S 32°55' E 151°46'0 0.0
2017-Aug-04 18:30S 32°55' E 151°46'0 0.0
2017-Aug-04 18:00S 32°55' E 151°46'0 0.0
2017-Aug-04 17:30S 32°55' E 151°46'0 0.0
2017-Aug-04 17:00S 32°55' E 151°46'0 0.0
2017-Aug-04 16:27S 32°55' E 151°46'0 0.0
2017-Aug-04 16:00S 32°55' E 151°46'0 0.0
2017-Aug-04 15:30S 32°55' E 151°46'0 0.0
2017-Aug-04 14:51S 32°55' E 151°46'0 0.0
2017-Aug-04 14:00S 32°55' E 151°46'0 0.0
2017-Aug-04 13:30S 32°55' E 151°46'0 0.0
2017-Aug-04 13:00S 32°55' E 151°46'0 0.0
2017-Aug-04 12:27S 32°55' E 151°46'0 0.0
2017-Aug-04 11:57S 32°55' E 151°46'0 0.0
2017-Aug-04 11:30S 32°55' E 151°46'0 0.0
2017-Aug-04 11:00S 32°55' E 151°46'0 0.0
2017-Aug-04 10:30S 32°55' E 151°46'0 0.0
2017-Aug-04 10:00S 32°55' E 151°46'0 0.0
2017-Aug-04 09:30S 32°55' E 151°46'0 0.0
2017-Aug-04 09:00S 32°55' E 151°46'0 0.0
2017-Aug-04 08:27S 32°55' E 151°46'0 0.0
2017-Aug-04 07:57S 32°55' E 151°46'0 0.0
2017-Aug-04 07:30S 32°55' E 151°46'0 0.0
2017-Aug-04 06:57S 32°55' E 151°46'0 0.0
2017-Aug-04 06:30S 32°55' E 151°46'0 0.0
2017-Aug-04 05:57S 32°55' E 151°46'0 0.0
2017-Aug-04 05:21S 32°55' E 151°46'0 0.0
2017-Aug-04 04:57S 32°55' E 151°46'0 0.0
2017-Aug-04 04:27S 32°55' E 151°46'0 0.0
2017-Aug-04 03:51S 32°55' E 151°46'0 0.0
2017-Aug-04 03:30S 32°55' E 151°46'0 0.0
2017-Aug-04 03:00S 32°55' E 151°46'0 0.0
2017-Aug-04 02:27S 32°55' E 151°46'0 0.0
2017-Aug-04 02:00S 32°55' E 151°46'0 0.0
2017-Aug-04 01:27S 32°55' E 151°46'0 0.0
2017-Aug-04 01:00S 32°55' E 151°46'0 0.0
2017-Aug-04 00:27S 32°55' E 151°46'0 0.0
2017-Aug-03 23:57S 32°55' E 151°46'0 0.0
2017-Aug-03 23:30S 32°55' E 151°46'0 0.0
2017-Aug-03 23:00S 32°55' E 151°46'0 0.0
2017-Aug-03 22:30S 32°55' E 151°46'0 0.0
2017-Aug-03 22:00S 32°55' E 151°46'0 0.0
2017-Aug-03 21:30S 32°55' E 151°46'0 0.0
2017-Aug-03 20:57S 32°55' E 151°46'0 0.0
2017-Aug-03 20:30S 32°55' E 151°46'0 0.0
2017-Aug-03 20:00S 32°55' E 151°46'0 0.0
2017-Aug-03 19:30S 32°55' E 151°46'0 0.0
2017-Aug-03 19:00S 32°55' E 151°46'0 0.0
2017-Aug-03 18:30S 32°55' E 151°46'0 0.0
2017-Aug-03 18:00S 32°55' E 151°46'0 0.0
2017-Aug-03 17:30S 32°55' E 151°46'0 0.0
2017-Aug-03 17:00S 32°55' E 151°46'0 0.0
2017-Aug-03 16:30S 32°55' E 151°46'0 0.0
2017-Aug-03 16:00S 32°55' E 151°46'0 0.0
2017-Aug-03 15:30S 32°55' E 151°46'0 0.0
2017-Aug-03 15:00S 32°55' E 151°46'0 0.0
2017-Aug-03 14:00S 32°55' E 151°46'0 0.0
2017-Aug-03 13:30S 32°55' E 151°46'0 0.0
2017-Aug-03 13:00S 32°55' E 151°46'0 0.0
2017-Aug-03 12:30S 32°55' E 151°46'0 0.0
2017-Aug-03 12:00S 32°55' E 151°46'0 0.0
2017-Aug-03 11:30S 32°55' E 151°46'0 0.0
2017-Aug-03 11:00S 32°55' E 151°46'0 0.0
2017-Aug-03 10:30S 32°55' E 151°46'0 0.0
2017-Aug-03 10:00S 32°55' E 151°46'0 0.0
2017-Aug-03 09:27S 32°55' E 151°46'0 0.0
2017-Aug-03 08:57S 32°55' E 151°46'0 0.0
2017-Aug-03 08:27S 32°55' E 151°46'0 0.0
2017-Aug-03 08:00S 32°55' E 151°46'0 0.0
2017-Aug-03 07:27S 32°55' E 151°46'0 0.0
2017-Aug-03 06:54S 32°55' E 151°46'0 0.0
2017-Aug-03 06:30S 32°55' E 151°46'0 0.0
2017-Aug-03 05:57S 32°55' E 151°46'0 0.0
2017-Aug-03 05:30S 32°55' E 151°46'0 0.0
2017-Aug-03 04:57S 32°55' E 151°46'0 0.0
2017-Aug-03 04:30S 32°55' E 151°46'0 0.0
2017-Aug-03 04:00S 32°55' E 151°46'0 0.0
2017-Aug-03 03:30S 32°55' E 151°46'0 0.0
2017-Aug-03 03:00S 32°55' E 151°46'0 0.0
2017-Aug-03 02:30S 32°55' E 151°46'0 0.0
2017-Aug-03 02:00S 32°55' E 151°46'0 0.0
2017-Aug-03 01:30S 32°55' E 151°46'0 0.0
2017-Aug-03 01:00S 32°55' E 151°46'0 0.0
2017-Aug-03 00:30S 32°55' E 151°46'0 0.0
2017-Aug-03 00:00S 32°55' E 151°46'0 0.0
2017-Aug-02 23:30S 32°55' E 151°46'0 0.0
2017-Aug-02 23:00S 32°55' E 151°46'0 0.0
2017-Aug-02 22:30S 32°55' E 151°46'0 0.0
2017-Aug-02 21:57S 32°55' E 151°46'0 0.0
2017-Aug-02 21:30S 32°55' E 151°46'0 0.0
2017-Aug-02 20:57S 32°55' E 151°46'0 0.0
2017-Aug-02 20:18S 32°55' E 151°46'0 0.0
2017-Aug-02 20:00S 32°55' E 151°46'0 0.0
2017-Aug-02 19:30S 32°55' E 151°46'0 0.0
2017-Aug-02 19:00S 32°55' E 151°46'0 0.0
2017-Aug-02 18:30S 32°55' E 151°46'0 0.0
2017-Aug-02 17:51S 32°55' E 151°46'0 0.0
2017-Aug-02 16:51S 32°55' E 151°46'0 0.0
2017-Aug-02 16:27S 32°55' E 151°46'0 0.0
2017-Aug-02 16:00S 32°55' E 151°46'0 0.0
2017-Aug-02 15:30S 32°55' E 151°46'0 0.0
2017-Aug-02 14:57S 32°55' E 151°46'0 0.0
2017-Aug-02 13:27S 32°55' E 151°46'0 0.0
2017-Aug-02 12:57S 32°55' E 151°46'0 0.0
2017-Aug-02 12:30S 32°55' E 151°46'0 0.0
2017-Aug-02 11:57S 32°55' E 151°46'0 0.0
2017-Aug-02 11:27S 32°55' E 151°46'0 0.0
2017-Aug-02 10:57S 32°55' E 151°46'0 0.0
2017-Aug-02 10:27S 32°55' E 151°46'0 0.0
2017-Aug-02 09:57S 32°55' E 151°46'0 0.0
2017-Aug-02 09:27S 32°55' E 151°46'0 0.0
2017-Aug-02 09:00S 32°55' E 151°46'0 0.0
2017-Aug-02 08:21S 32°55' E 151°46'0 0.0
2017-Aug-02 08:00S 32°55' E 151°46'0 0.0
2017-Aug-02 05:54S 32°55' E 151°46'0 0.0
2017-Aug-02 05:21S 32°55' E 151°46'0 0.0
2017-Aug-02 04:51S 32°55' E 151°46'0 0.0
2017-Aug-02 04:24S 32°55' E 151°46'0 0.0
2017-Aug-02 04:00S 32°55' E 151°46'0 0.0
2017-Aug-02 02:27S 32°55' E 151°46'0 0.0
2017-Aug-02 02:00S 32°55' E 151°46'  
2017-Jul-29 19:00S 32°59' E 152°05'0 0.8
2017-Jul-29 18:31S 32°59' E 152°04'0 0.8
2017-Jul-29 18:00S 32°59' E 152°04'0 0.7
2017-Jul-29 17:30S 32°59' E 152°03'0 0.9
2017-Jul-29 17:00S 32°59' E 152°03'0 0.6
2017-Jul-29 16:30S 32°59' E 152°03'0 0.8
2017-Jul-29 16:00S 32°59' E 152°02'0 0.7
2017-Jul-29 15:30S 32°59' E 152°02'0 0.6
2017-Jul-29 15:00S 32°59' E 152°01'0 0.4
2017-Jul-29 14:01S 32°59' E 152°01'0 0.5
2017-Jul-29 13:30S 32°59' E 152°01'0 0.4
2017-Jul-29 13:00S 32°60' E 152°00'0 0.4
2017-Jul-29 12:30S 32°60' E 152°00'0 0.3
2017-Jul-29 12:00S 32°60' E 152°00'0 0.2
2017-Jul-29 11:30S 32°60' E 152°00'0 0.0
2017-Jul-29 11:00S 32°60' E 152°00'0 0.1
2017-Jul-29 10:30S 32°60' E 152°00'0 0.2
2017-Jul-29 10:00S 33°00' E 151°60'0 0.4
2017-Jul-29 09:30S 33°00' E 151°60'0 0.3
2017-Jul-29 09:00S 33°00' E 151°60'0 0.4
2017-Jul-29 08:30S 33°00' E 151°60'0 0.7
2017-Jul-29 08:00S 33°01' E 151°59'0 0.8
2017-Jul-29 07:30S 33°01' E 151°59'0 0.8
2017-Jul-29 07:00S 33°01' E 151°59'0 0.7
2017-Jul-29 06:30S 33°02' E 151°59'0 0.8
2017-Jul-29 06:00S 33°02' E 151°58'0 0.7
2017-Jul-29 05:30S 33°02' E 151°58'1 1.1
2017-Jul-29 05:00S 33°03' E 151°58'1 1.2
2017-Jul-29 04:30S 33°03' E 151°57'1 1.5
2017-Jul-29 04:00S 33°04' E 151°57'3 5.5
2017-Jul-29 03:31S 33°03' E 151°53'4 8.8
2017-Jul-29 03:00S 33°08' E 151°53'611.4
2017-Jul-29 02:27S 33°14' E 151°52'33710.7
2017-Jul-27 19:03S 38°22' E 149°04'611.6
2017-Jul-27 18:33S 38°25' E 148°57'115.4
2017-Jul-27 18:29S 38°25' E 148°56'  

Dump ship's entire track history